Time,TemperatureF,DewpointF,PressureIn,WindDirection,WindDirectionDegrees,WindSpeedMPH,WindSpeedGustMPH,Humidity,HourlyPrecipIn,Conditions,Clouds,dailyrainin,SoftwareType,DateUTC
2013-04-26 00:02:00,42.8,39.2,30.29,WSW,252,3.1,4.0,88,0.00,,,-99.99,perl,2013-04-26 04:02:00,
2013-04-26 00:04:00,42.6,39.2,30.29,West,266,0.8,0.0,88,0.00,,,-99.99,perl,2013-04-26 04:04:00,
2013-04-26 00:07:00,42.6,39.2,30.29,West,261,0.0,0.0,88,0.00,,,-99.99,perl,2013-04-26 04:07:00,
2013-04-26 00:09:00,42.4,39.2,30.29,West,261,0.0,0.0,89,0.00,,,-99.99,perl,2013-04-26 04:09:00,
2013-04-26 00:14:00,42.3,39.2,30.29,West,259,0.0,0.0,89,0.00,,,-99.99,perl,2013-04-26 04:14:00,
2013-04-26 00:19:00,42.3,39.2,30.29,West,259,1.5,3.6,89,0.00,,,-99.99,perl,2013-04-26 04:19:00,
2013-04-26 00:24:00,41.9,39.2,30.29,WSW,246,2.7,8.1,91,0.00,,,-99.99,perl,2013-04-26 04:24:00,
2013-04-26 00:29:00,41.9,39.2,30.29,WSW,242,3.5,4.9,91,0.00,,,-99.99,perl,2013-04-26 04:29:00,
2013-04-26 00:34:00,41.7,37.4,30.29,WNW,282,0.0,3.6,84,0.00,,,-99.99,perl,2013-04-26 04:34:00,
2013-04-26 00:39:00,41.7,37.4,30.29,West,266,3.1,3.1,84,0.00,,,-99.99,perl,2013-04-26 04:39:00,
2013-04-26 00:44:00,41.5,37.4,30.29,West,279,0.0,0.0,85,0.00,,,-99.99,perl,2013-04-26 04:44:00,
2013-04-26 00:50:00,41.4,37.4,30.29,West,268,0.0,4.0,85,0.00,,,-99.99,perl,2013-04-26 04:50:00,
2013-04-26 00:55:00,41.2,37.4,30.29,West,273,1.8,4.9,86,0.00,,,-99.99,perl,2013-04-26 04:55:00,
2013-04-26 01:00:00,41.0,37.4,30.29,West,279,0.0,2.7,86,0.00,,,-99.99,perl,2013-04-26 05:00:00,
2013-04-26 01:05:00,41.0,37.4,30.29,WNW,286,2.7,2.7,86,0.00,,,-99.99,perl,2013-04-26 05:05:00,
2013-04-26 01:10:00,40.8,37.4,30.29,WSW,252,3.1,3.6,87,0.00,,,-99.99,perl,2013-04-26 05:10:00,
2013-04-26 01:16:00,40.6,37.4,30.32,West,262,0.0,0.0,88,0.00,,,-99.99,perl,2013-04-26 05:16:00,
2013-04-26 01:21:00,40.6,37.4,30.32,WSW,249,3.5,3.6,88,0.00,,,-99.99,perl,2013-04-26 05:21:00,
2013-04-26 01:27:00,40.5,37.4,30.32,West,268,2.7,4.9,88,0.00,,,-99.99,perl,2013-04-26 05:27:00,
2013-04-26 01:32:00,40.5,37.4,30.32,WNW,288,0.0,0.0,88,0.00,,,-99.99,perl,2013-04-26 05:32:00,
2013-04-26 01:37:00,40.3,37.4,30.32,West,275,2.6,5.4,89,0.00,,,-99.99,perl,2013-04-26 05:37:00,
2013-04-26 01:42:00,40.3,37.4,30.32,West,263,2.0,4.0,89,0.00,,,-99.99,perl,2013-04-26 05:42:00,
2013-04-26 01:47:00,40.1,37.4,30.32,West,262,3.2,5.4,89,0.00,,,-99.99,perl,2013-04-26 05:47:00,
2013-04-26 01:52:00,39.9,37.4,30.32,West,265,0.0,5.8,91,0.00,,,-99.99,perl,2013-04-26 05:52:00,
2013-04-26 01:57:00,39.9,37.4,30.32,West,277,2.6,2.6,91,0.00,,,-99.99,perl,2013-04-26 05:57:00,
2013-04-26 02:02:00,39.9,37.4,30.32,WSW,250,3.1,3.6,91,0.00,,,-99.99,perl,2013-04-26 06:02:00,
2013-04-26 02:07:00,39.9,37.4,30.32,West,265,0.6,0.0,91,0.00,,,-99.99,perl,2013-04-26 06:07:00,
2013-04-26 02:12:00,39.9,37.4,30.32,SW,234,0.0,0.0,91,0.00,,,-99.99,perl,2013-04-26 06:12:00,
2013-04-26 02:17:00,39.7,37.4,30.32,West,274,0.0,0.0,91,0.00,,,-99.99,perl,2013-04-26 06:17:00,
2013-04-26 02:22:00,39.7,37.4,30.32,West,274,0.0,0.0,91,0.00,,,-99.99,perl,2013-04-26 06:22:00,
2013-04-26 02:27:00,39.4,37.4,30.32,West,275,0.0,0.0,92,0.00,,,-99.99,perl,2013-04-26 06:27:00,
2013-04-26 02:34:00,39.2,37.4,30.32,West,275,0.0,0.0,93,0.00,,,-99.99,perl,2013-04-26 06:34:00,
2013-04-26 02:39:00,38.8,37.4,30.32,West,273,0.0,0.0,95,0.00,,,-99.99,perl,2013-04-26 06:39:00,
2013-04-26 02:44:00,38.7,37.4,30.32,West,274,0.0,0.0,95,0.00,,,-99.99,perl,2013-04-26 06:44:00,
2013-04-26 02:49:00,38.7,37.4,30.32,West,274,0.0,0.0,95,0.00,,,-99.99,perl,2013-04-26 06:49:00,
2013-04-26 02:54:00,38.7,37.4,30.32,West,274,0.0,0.0,95,0.00,,,-99.99,perl,2013-04-26 06:54:00,
2013-04-26 02:59:00,38.5,37.4,30.32,West,274,0.0,0.0,95,0.00,,,-99.99,perl,2013-04-26 06:59:00,
2013-04-26 03:04:00,38.7,37.4,30.32,West,274,0.0,0.0,95,0.00,,,-99.99,perl,2013-04-26 07:04:00,
2013-04-26 03:09:00,38.8,37.4,30.32,West,275,0.0,0.0,95,0.00,,,-99.99,perl,2013-04-26 07:09:00,
2013-04-26 03:14:00,38.8,37.4,30.32,West,275,0.0,0.0,95,0.00,,,-99.99,perl,2013-04-26 07:14:00,
2013-04-26 03:19:00,38.8,37.4,30.32,West,274,0.0,0.0,95,0.00,,,-99.99,perl,2013-04-26 07:19:00,
2013-04-26 03:24:00,38.8,37.4,30.32,WSW,246,0.0,0.0,95,0.00,,,-99.99,perl,2013-04-26 07:24:00,
2013-04-26 03:29:00,38.8,37.4,30.32,SW,226,0.0,0.0,95,0.00,,,-99.99,perl,2013-04-26 07:29:00,
2013-04-26 03:34:00,38.8,37.4,30.32,WNW,299,0.0,0.0,95,0.00,,,-99.99,perl,2013-04-26 07:34:00,
2013-04-26 03:39:00,38.8,37.4,30.32,WNW,285,1.8,0.0,95,0.00,,,-99.99,perl,2013-04-26 07:39:00,
2013-04-26 03:44:00,38.8,37.4,30.35,WSW,258,0.0,0.0,95,0.00,,,-99.99,perl,2013-04-26 07:44:00,
2013-04-26 03:49:00,38.8,37.4,30.35,West,271,0.0,0.0,95,0.00,,,-99.99,perl,2013-04-26 07:49:00,
2013-04-26 03:55:00,38.8,37.4,30.35,West,260,0.0,0.0,95,0.00,,,-99.99,perl,2013-04-26 07:55:00,
2013-04-26 04:00:00,38.8,37.4,30.35,WSW,255,3.4,4.9,95,0.00,,,-99.99,perl,2013-04-26 08:00:00,
2013-04-26 04:05:00,38.8,39.2,30.35,WNW,300,2.2,3.1,100,0.00,,,-99.99,perl,2013-04-26 08:05:00,
2013-04-26 04:10:00,39.0,39.2,30.35,West,262,4.0,4.0,100,0.00,,,-99.99,perl,2013-04-26 08:10:00,
2013-04-26 04:15:00,39.0,39.2,30.35,WSW,258,2.7,3.1,100,0.00,,,-99.99,perl,2013-04-26 08:15:00,
2013-04-26 04:20:00,39.0,39.2,30.35,West,265,3.4,3.4,100,0.00,,,-99.99,perl,2013-04-26 08:20:00,
2013-04-26 04:25:00,38.8,37.4,30.35,WSW,252,3.8,3.8,95,0.00,,,-99.99,perl,2013-04-26 08:25:00,
2013-04-26 04:30:00,38.8,37.4,30.35,WSW,244,3.1,4.0,95,0.00,,,-99.99,perl,2013-04-26 08:30:00,
2013-04-26 04:35:00,38.8,37.4,30.35,WSW,249,2.2,3.6,95,0.00,,,-99.99,perl,2013-04-26 08:35:00,
2013-04-26 04:40:00,38.7,37.4,30.35,SW,236,4.0,4.0,95,0.00,,,-99.99,perl,2013-04-26 08:40:00,
2013-04-26 04:45:00,38.7,37.4,30.35,West,259,2.7,3.1,95,0.00,,,-99.99,perl,2013-04-26 08:45:00,
2013-04-26 04:50:00,38.7,37.4,30.35,West,268,2.7,3.1,95,0.00,,,-99.99,perl,2013-04-26 08:50:00,
2013-04-26 04:55:00,38.5,37.4,30.35,West,259,3.4,4.0,95,0.00,,,-99.99,perl,2013-04-26 08:55:00,
2013-04-26 05:01:00,38.5,37.4,30.35,WNW,288,4.0,4.0,95,0.00,,,-99.99,perl,2013-04-26 09:01:00,
2013-04-26 05:06:00,38.3,37.4,30.35,West,271,0.0,0.0,97,0.00,,,-99.99,perl,2013-04-26 09:06:00,
2013-04-26 05:12:00,38.3,37.4,30.35,West,271,2.7,5.4,97,0.00,,,-99.99,perl,2013-04-26 09:12:00,
2013-04-26 05:17:00,38.1,35.6,30.38,West,276,3.6,5.8,91,0.00,,,-99.99,perl,2013-04-26 09:17:00,
2013-04-26 05:22:00,38.1,35.6,30.38,WNW,283,0.0,0.0,91,0.00,,,-99.99,perl,2013-04-26 09:22:00,
2013-04-26 05:27:00,37.9,35.6,30.38,WSW,258,0.0,0.0,92,0.00,,,-99.99,perl,2013-04-26 09:27:00,
2013-04-26 05:32:00,37.9,37.4,30.38,West,260,0.0,0.0,98,0.00,,,-99.99,perl,2013-04-26 09:32:00,
2013-04-26 05:38:00,37.8,37.4,30.38,WNW,286,3.1,4.9,98,0.00,,,-99.99,perl,2013-04-26 09:38:00,
2013-04-26 05:43:00,37.8,37.4,30.38,West,276,3.6,4.0,98,0.00,,,-99.99,perl,2013-04-26 09:43:00,
2013-04-26 05:49:00,37.8,37.4,30.38,West,269,2.9,3.1,98,0.00,,,-99.99,perl,2013-04-26 09:49:00,
2013-04-26 05:54:00,37.8,37.4,30.38,WSW,255,3.0,5.4,98,0.00,,,-99.99,perl,2013-04-26 09:54:00,
2013-04-26 05:59:00,37.6,37.4,30.38,West,266,3.6,5.4,99,0.00,,,-99.99,perl,2013-04-26 09:59:00,
2013-04-26 06:04:00,37.6,37.4,30.38,West,266,3.6,3.6,99,0.00,,,-99.99,perl,2013-04-26 10:04:00,
2013-04-26 06:09:00,37.6,37.4,30.38,West,263,4.9,5.4,99,0.00,,,-99.99,perl,2013-04-26 10:09:00,
2013-04-26 06:14:00,37.6,37.4,30.38,West,264,4.5,4.5,99,0.00,,,-99.99,perl,2013-04-26 10:14:00,
2013-04-26 06:19:00,37.6,37.4,30.38,West,262,2.3,3.6,99,0.00,,,-99.99,perl,2013-04-26 10:19:00,
2013-04-26 06:24:00,37.6,37.4,30.38,West,263,3.4,5.4,99,0.00,,,-99.99,perl,2013-04-26 10:24:00,
2013-04-26 06:29:00,37.6,37.4,30.38,West,267,3.9,6.3,99,0.00,,,-99.99,perl,2013-04-26 10:29:00,
2013-04-26 06:34:00,37.6,37.4,30.41,WSW,254,2.0,3.1,99,0.00,,,-99.99,perl,2013-04-26 10:34:00,
2013-04-26 06:39:00,37.6,37.4,30.41,West,265,4.5,4.5,99,0.00,,,-99.99,perl,2013-04-26 10:39:00,
2013-04-26 06:45:00,37.6,37.4,30.41,West,274,0.5,0.0,99,0.00,,,-99.99,perl,2013-04-26 10:45:00,
2013-04-26 06:50:00,37.6,37.4,30.41,West,270,2.8,3.1,99,0.00,,,-99.99,perl,2013-04-26 10:50:00,
2013-04-26 06:55:00,37.8,37.4,30.41,West,271,3.3,4.0,98,0.00,,,-99.99,perl,2013-04-26 10:55:00,
2013-04-26 07:00:00,37.9,37.4,30.41,WNW,290,0.0,3.6,98,0.00,,,-99.99,perl,2013-04-26 11:00:00,
2013-04-26 07:05:00,37.9,37.4,30.41,West,276,1.0,2.7,98,0.00,,,-99.99,perl,2013-04-26 11:05:00,
2013-04-26 07:11:00,38.1,37.4,30.41,WNW,286,0.6,0.0,97,0.00,,,-99.99,perl,2013-04-26 11:11:00,
2013-04-26 07:16:00,38.5,39.2,30.41,West,273,2.9,5.8,100,0.00,,,-99.99,perl,2013-04-26 11:16:00,
2013-04-26 07:21:00,38.7,39.2,30.41,WSW,253,4.5,4.9,100,0.00,,,-99.99,perl,2013-04-26 11:21:00,
2013-04-26 07:26:00,38.8,39.2,30.41,WSW,255,3.9,4.0,100,0.00,,,-99.99,perl,2013-04-26 11:26:00,
2013-04-26 07:31:00,39.0,39.2,30.41,West,280,3.6,4.0,100,0.00,,,-99.99,perl,2013-04-26 11:31:00,
2013-04-26 07:37:00,39.2,39.2,30.41,WNW,285,2.6,5.4,100,0.00,,,-99.99,perl,2013-04-26 11:37:00,
2013-04-26 07:42:00,39.7,37.4,30.41,West,270,3.6,5.8,91,0.00,,,-99.99,perl,2013-04-26 11:42:00,
2013-04-26 07:47:00,39.9,37.4,30.41,West,268,4.0,8.1,91,0.00,,,-99.99,perl,2013-04-26 11:47:00,
2013-04-26 07:52:00,40.1,37.4,30.41,WNW,297,3.6,8.1,89,0.00,,,-99.99,perl,2013-04-26 11:52:00,
2013-04-26 07:57:00,40.5,37.4,30.41,West,264,3.4,5.4,88,0.00,,,-99.99,perl,2013-04-26 11:57:00,
2013-04-26 08:02:00,40.6,37.4,30.44,WNW,297,3.7,3.7,88,0.00,,,-99.99,perl,2013-04-26 12:02:00,
2013-04-26 08:07:00,41.2,35.6,30.44,WNW,285,3.4,5.8,80,0.00,,,-99.99,perl,2013-04-26 12:07:00,
2013-04-26 08:12:00,41.4,33.8,30.44,West,277,4.0,6.3,74,0.00,,,-99.99,perl,2013-04-26 12:12:00,
2013-04-26 08:17:00,41.7,33.8,30.44,West,272,3.6,4.9,73,0.00,,,-99.99,perl,2013-04-26 12:17:00,
2013-04-26 08:22:00,42.3,32.0,30.44,West,267,6.4,6.4,67,0.00,,,-99.99,perl,2013-04-26 12:22:00,
2013-04-26 08:27:00,42.4,-99.9,30.44,West,267,4.0,4.0,-999,0.00,,,-99.99,perl,2013-04-26 12:27:00,
2013-04-26 08:32:00,43.0,-99.9,30.44,West,262,3.1,3.1,-999,0.00,,,-99.99,perl,2013-04-26 12:32:00,
2013-04-26 08:37:00,43.3,-99.9,30.44,WNW,295,3.8,4.0,-999,0.00,,,-99.99,perl,2013-04-26 12:37:00,
2013-04-26 08:42:00,43.7,-99.9,30.44,WNW,302,2.8,4.0,-999,0.00,,,-99.99,perl,2013-04-26 12:42:00,
2013-04-26 08:47:00,44.2,-99.9,30.44,NW,307,3.0,3.6,-999,0.00,,,-99.99,perl,2013-04-26 12:47:00,
2013-04-26 08:52:00,44.4,-99.9,30.44,NW,314,5.8,5.8,-999,0.00,,,-99.99,perl,2013-04-26 12:52:00,
2013-04-26 08:57:00,44.4,-99.9,30.44,West,274,3.8,6.3,-999,0.00,,,-99.99,perl,2013-04-26 12:57:00,
2013-04-26 09:02:00,44.8,-99.9,30.44,WNW,303,4.0,5.8,-999,0.00,,,-99.99,perl,2013-04-26 13:02:00,
2013-04-26 09:07:00,45.0,-99.9,30.44,NW,326,2.9,5.8,-999,0.00,,,-99.99,perl,2013-04-26 13:07:00,
2013-04-26 09:12:00,45.1,-99.9,30.44,WNW,286,2.3,2.7,-999,0.00,,,-99.99,perl,2013-04-26 13:12:00,
2013-04-26 09:17:00,45.5,-99.9,30.44,WSW,244,4.3,5.4,-999,0.00,,,-99.99,perl,2013-04-26 13:17:00,
2013-04-26 09:22:00,45.3,-99.9,30.44,West,271,2.8,5.8,-999,0.00,,,-99.99,perl,2013-04-26 13:22:00,
2013-04-26 09:28:00,45.5,-99.9,30.44,West,279,3.0,6.3,-999,0.00,,,-99.99,perl,2013-04-26 13:28:00,
2013-04-26 09:33:00,46.0,-99.9,30.44,NW,316,0.0,0.0,-999,0.00,,,-99.99,perl,2013-04-26 13:33:00,
2013-04-26 09:38:00,46.4,-99.9,30.44,NNW,330,3.5,5.4,-999,0.00,,,-99.99,perl,2013-04-26 13:38:00,
2013-04-26 09:44:00,46.6,-99.9,30.44,NW,306,3.6,4.9,-999,0.00,,,-99.99,perl,2013-04-26 13:44:00,
2013-04-26 09:49:00,46.6,-99.9,30.44,NW,308,2.4,3.6,-999,0.00,,,-99.99,perl,2013-04-26 13:49:00,
2013-04-26 09:54:00,46.6,-99.9,30.44,West,265,5.0,8.7,-999,0.00,,,-99.99,perl,2013-04-26 13:54:00,
2013-04-26 09:59:00,46.2,-99.9,30.47,WNW,288,6.2,7.6,-999,0.00,,,-99.99,perl,2013-04-26 13:59:00,
2013-04-26 10:05:00,46.6,-99.9,30.47,NNW,338,2.2,0.0,-999,0.00,,,-99.99,perl,2013-04-26 14:05:00,
2013-04-26 10:10:00,46.9,-99.9,30.47,WNW,291,4.3,6.3,-999,0.00,,,-99.99,perl,2013-04-26 14:10:00,
2013-04-26 10:15:00,47.3,-99.9,30.47,SSW,207,2.8,4.0,-999,0.00,,,-99.99,perl,2013-04-26 14:15:00,
2013-04-26 10:20:00,47.8,-99.9,30.47,WNW,291,1.3,4.0,-999,0.00,,,-99.99,perl,2013-04-26 14:20:00,
2013-04-26 10:25:00,48.2,-99.9,30.47,WNW,300,4.4,5.4,-999,0.00,,,-99.99,perl,2013-04-26 14:25:00,
2013-04-26 10:30:00,48.4,-99.9,30.47,NW,325,3.6,3.6,-999,0.00,,,-99.99,perl,2013-04-26 14:30:00,
2013-04-26 10:35:00,48.6,-99.9,30.47,WNW,302,3.5,4.0,-999,0.00,,,-99.99,perl,2013-04-26 14:35:00,
2013-04-26 10:40:00,48.4,-99.9,30.47,WNW,302,3.6,4.0,-999,0.00,,,-99.99,perl,2013-04-26 14:40:00,
2013-04-26 10:45:00,48.2,-99.9,30.47,North,353,2.6,2.6,-999,0.00,,,-99.99,perl,2013-04-26 14:45:00,
2013-04-26 10:51:00,48.2,-99.9,30.47,SW,223,4.9,6.3,-999,0.00,,,-99.99,perl,2013-04-26 14:51:00,
2013-04-26 10:56:00,48.6,-99.9,30.47,WSW,243,3.7,3.7,-999,0.00,,,-99.99,perl,2013-04-26 14:56:00,
2013-04-26 11:01:00,49.3,-99.9,30.47,WNW,297,2.7,5.8,-999,0.00,,,-99.99,perl,2013-04-26 15:01:00,
2013-04-26 11:06:00,49.5,-99.9,30.47,NNW,345,0.0,4.9,-999,0.00,,,-99.99,perl,2013-04-26 15:06:00,
2013-04-26 11:11:00,49.5,-99.9,30.47,SSW,203,3.7,6.3,-999,0.00,,,-99.99,perl,2013-04-26 15:11:00,
2013-04-26 11:16:00,49.6,-99.9,30.47,West,274,4.6,8.1,-999,0.00,,,-99.99,perl,2013-04-26 15:16:00,
2013-04-26 11:21:00,49.1,-99.9,30.47,WNW,294,3.7,5.8,-999,0.00,,,-99.99,perl,2013-04-26 15:21:00,
2013-04-26 11:26:00,49.8,-99.9,30.47,WSW,244,4.0,8.1,-999,0.00,,,-99.99,perl,2013-04-26 15:26:00,
2013-04-26 11:31:00,48.9,-99.9,30.47,WSW,239,7.9,7.9,-999,0.00,,,-99.99,perl,2013-04-26 15:31:00,
2013-04-26 11:36:00,49.6,-99.9,30.47,WNW,295,4.0,4.0,-999,0.00,,,-99.99,perl,2013-04-26 15:36:00,
2013-04-26 11:41:00,50.2,-99.9,30.47,SSW,212,2.8,3.6,-999,0.00,,,-99.99,perl,2013-04-26 15:41:00,
2013-04-26 11:46:00,49.8,-99.9,30.47,WSW,240,3.9,7.6,-999,0.00,,,-99.99,perl,2013-04-26 15:46:00,
2013-04-26 11:51:00,50.2,-99.9,30.47,West,267,0.7,3.6,-999,0.00,,,-99.99,perl,2013-04-26 15:51:00,
2013-04-26 11:56:00,50.7,-99.9,30.47,NW,325,4.5,5.8,-999,0.00,,,-99.99,perl,2013-04-26 15:56:00,
2013-04-26 12:01:00,50.7,-99.9,30.47,WNW,291,3.6,5.8,-999,0.00,,,-99.99,perl,2013-04-26 16:01:00,
2013-04-26 12:06:00,50.7,-99.9,30.47,NNW,331,3.9,4.0,-999,0.00,,,-99.99,perl,2013-04-26 16:06:00,
2013-04-26 12:11:00,51.1,-99.9,30.47,West,280,0.0,5.8,-999,0.00,,,-99.99,perl,2013-04-26 16:11:00,
2013-04-26 12:16:00,51.1,-99.9,30.47,West,271,3.5,8.7,-999,0.00,,,-99.99,perl,2013-04-26 16:16:00,
2013-04-26 12:21:00,51.1,-99.9,30.47,WSW,238,4.2,5.8,-999,0.00,,,-99.99,perl,2013-04-26 16:21:00,
2013-04-26 12:26:00,51.4,-99.9,30.47,West,275,2.6,0.0,-999,0.00,,,-99.99,perl,2013-04-26 16:26:00,
2013-04-26 12:31:00,51.8,-99.9,30.47,West,277,6.3,8.7,-999,0.00,,,-99.99,perl,2013-04-26 16:31:00,
2013-04-26 12:36:00,51.6,-99.9,30.47,NNW,334,4.0,4.5,-999,0.00,,,-99.99,perl,2013-04-26 16:36:00,
2013-04-26 12:41:00,51.6,-99.9,30.47,West,274,4.0,10.5,-999,0.00,,,-99.99,perl,2013-04-26 16:41:00,
2013-04-26 12:46:00,52.0,-99.9,30.47,SSW,207,3.1,3.1,-999,0.00,,,-99.99,perl,2013-04-26 16:46:00,
2013-04-26 12:51:00,52.5,-99.9,30.47,West,261,2.7,5.8,-999,0.00,,,-99.99,perl,2013-04-26 16:51:00,
2013-04-26 12:56:00,53.1,-99.9,30.47,NNW,327,4.7,6.3,-999,0.00,,,-99.99,perl,2013-04-26 16:56:00,
2013-04-26 13:02:00,52.9,-99.9,30.47,WNW,283,0.0,3.6,-999,0.00,,,-99.99,perl,2013-04-26 17:02:00,
2013-04-26 13:07:00,53.2,-99.9,30.47,West,260,3.6,5.4,-999,0.00,,,-99.99,perl,2013-04-26 17:07:00,
2013-04-26 13:12:00,53.1,-99.9,30.47,NNW,327,3.1,4.9,-999,0.00,,,-99.99,perl,2013-04-26 17:12:00,
2013-04-26 13:17:00,52.0,-99.9,30.47,WNW,301,6.7,6.7,-999,0.00,,,-99.99,perl,2013-04-26 17:17:00,
2013-04-26 13:22:00,51.6,-99.9,30.47,NNW,329,3.7,5.8,-999,0.00,,,-99.99,perl,2013-04-26 17:22:00,
2013-04-26 13:27:00,52.5,-99.9,30.47,West,262,0.0,4.0,-999,0.00,,,-99.99,perl,2013-04-26 17:27:00,
2013-04-26 13:32:00,52.5,-99.9,30.47,West,278,4.5,4.9,-999,0.00,,,-99.99,perl,2013-04-26 17:32:00,
2013-04-26 13:37:00,52.7,-99.9,30.47,WNW,297,1.7,5.4,-999,0.00,,,-99.99,perl,2013-04-26 17:37:00,
2013-04-26 13:42:00,52.2,-99.9,30.47,WSW,254,4.9,9.2,-999,0.00,,,-99.99,perl,2013-04-26 17:42:00,
2013-04-26 13:47:00,52.0,-99.9,30.47,SSE,162,0.0,2.7,-999,0.00,,,-99.99,perl,2013-04-26 17:47:00,
2013-04-26 13:52:00,52.5,-99.9,30.47,NW,318,0.8,5.4,-999,0.00,,,-99.99,perl,2013-04-26 17:52:00,
2013-04-26 13:57:00,52.2,-99.9,30.47,WSW,237,7.3,13.6,-999,0.00,,,-99.99,perl,2013-04-26 17:57:00,
2013-04-26 14:02:00,52.5,-99.9,30.47,NW,309,3.8,3.8,-999,0.00,,,-99.99,perl,2013-04-26 18:02:00,
2013-04-26 14:07:00,53.1,-99.9,30.47,WSW,241,3.1,4.0,-999,0.00,,,-99.99,perl,2013-04-26 18:07:00,
2013-04-26 14:12:00,53.2,-99.9,30.47,NW,317,0.9,4.9,-999,0.00,,,-99.99,perl,2013-04-26 18:12:00,
2013-04-26 14:17:00,53.8,-99.9,30.44,WSW,249,3.1,8.3,-999,0.00,,,-99.99,perl,2013-04-26 18:17:00,
2013-04-26 14:22:00,53.8,-99.9,30.44,NNE,17,0.6,0.0,-999,0.00,,,-99.99,perl,2013-04-26 18:22:00,
2013-04-26 14:27:00,54.3,-99.9,30.44,South,177,3.0,3.1,-999,0.00,,,-99.99,perl,2013-04-26 18:27:00,
2013-04-26 14:32:00,54.0,-99.9,30.44,ESE,122,4.0,5.8,-999,0.00,,,-99.99,perl,2013-04-26 18:32:00,
2013-04-26 14:37:00,54.0,-99.9,30.44,SSE,152,0.5,5.4,-999,0.00,,,-99.99,perl,2013-04-26 18:37:00,
2013-04-26 14:42:00,54.0,-99.9,30.44,South,171,3.1,3.6,-999,0.00,,,-99.99,perl,2013-04-26 18:42:00,
2013-04-26 14:47:00,54.0,-99.9,30.44,ESE,123,3.9,4.0,-999,0.00,,,-99.99,perl,2013-04-26 18:47:00,
2013-04-26 14:53:00,54.0,-99.9,30.44,ESE,102,3.8,5.4,-999,0.00,,,-99.99,perl,2013-04-26 18:53:00,
2013-04-26 14:58:00,53.4,-99.9,30.44,SSW,210,3.9,4.0,-999,0.00,,,-99.99,perl,2013-04-26 18:58:00,
2013-04-26 15:03:00,53.8,-99.9,30.44,NW,318,2.7,4.0,-999,0.00,,,-99.99,perl,2013-04-26 19:03:00,
2013-04-26 15:08:00,54.0,-99.9,30.44,SE,134,4.8,5.8,-999,0.00,,,-99.99,perl,2013-04-26 19:08:00,
2013-04-26 15:14:00,53.6,-99.9,30.44,WNW,302,2.9,3.6,-999,0.00,,,-99.99,perl,2013-04-26 19:14:00,
2013-04-26 15:19:00,53.6,-99.9,30.44,West,276,3.7,3.7,-999,0.00,,,-99.99,perl,2013-04-26 19:19:00,
2013-04-26 15:24:00,53.8,-99.9,30.44,NNE,23,2.2,5.8,-999,0.00,,,-99.99,perl,2013-04-26 19:24:00,
2013-04-26 15:30:00,53.4,-99.9,30.44,ESE,104,4.0,5.8,-999,0.00,,,-99.99,perl,2013-04-26 19:30:00,
2013-04-26 15:35:00,53.4,-99.9,30.44,NNW,339,4.2,5.8,-999,0.00,,,-99.99,perl,2013-04-26 19:35:00,
2013-04-26 15:40:00,53.1,-99.9,30.44,SSE,150,1.8,2.7,-999,0.00,,,-99.99,perl,2013-04-26 19:40:00,
2013-04-26 15:45:00,53.6,-99.9,30.44,SSW,196,3.1,4.0,-999,0.00,,,-99.99,perl,2013-04-26 19:45:00,
2013-04-26 15:50:00,53.2,-99.9,30.44,South,175,4.8,4.8,-999,0.00,,,-99.99,perl,2013-04-26 19:50:00,
2013-04-26 15:55:00,53.2,-99.9,30.44,SE,124,2.7,4.0,-999,0.00,,,-99.99,perl,2013-04-26 19:55:00,
2013-04-26 16:00:00,53.4,-99.9,30.44,WSW,243,2.2,5.4,-999,0.00,,,-99.99,perl,2013-04-26 20:00:00,
2013-04-26 16:05:00,53.4,-99.9,30.44,NE,39,3.0,4.0,-999,0.00,,,-99.99,perl,2013-04-26 20:05:00,
2013-04-26 16:10:00,53.2,-99.9,30.44,NNE,13,3.0,4.9,-999,0.00,,,-99.99,perl,2013-04-26 20:10:00,
2013-04-26 16:16:00,53.4,-99.9,30.44,South,170,2.2,3.6,-999,0.00,,,-99.99,perl,2013-04-26 20:16:00,
2013-04-26 16:21:00,53.6,-99.9,30.44,East,90,3.4,4.5,-999,0.00,,,-99.99,perl,2013-04-26 20:21:00,
2013-04-26 16:26:00,53.6,-99.9,30.44,ESE,110,3.3,3.6,-999,0.00,,,-99.99,perl,2013-04-26 20:26:00,
2013-04-26 16:31:00,54.0,-99.9,30.44,South,191,3.4,6.3,-999,0.00,,,-99.99,perl,2013-04-26 20:31:00,
2013-04-26 16:36:00,53.8,-99.9,30.44,SW,216,4.4,7.6,-999,0.00,,,-99.99,perl,2013-04-26 20:36:00,
2013-04-26 16:41:00,53.6,-99.9,30.44,East,101,2.7,4.0,-999,0.00,,,-99.99,perl,2013-04-26 20:41:00,
2013-04-26 16:46:00,53.1,-99.9,30.44,NNE,14,4.0,5.4,-999,0.00,,,-99.99,perl,2013-04-26 20:46:00,
2013-04-26 16:52:00,52.7,-99.9,30.44,ESE,104,0.6,3.6,-999,0.00,,,-99.99,perl,2013-04-26 20:52:00,
2013-04-26 16:57:00,52.9,-99.9,30.44,North,351,3.2,5.8,-999,0.00,,,-99.99,perl,2013-04-26 20:57:00,
2013-04-26 17:02:00,53.1,-99.9,30.44,East,94,4.5,5.8,-999,0.00,,,-99.99,perl,2013-04-26 21:02:00,
2013-04-26 17:07:00,53.1,-99.9,30.44,SE,126,2.7,4.0,-999,0.00,,,-99.99,perl,2013-04-26 21:07:00,
2013-04-26 17:12:00,53.1,-99.9,30.44,NNW,342,2.2,5.8,-999,0.00,,,-99.99,perl,2013-04-26 21:12:00,
2013-04-26 17:17:00,52.7,-99.9,30.44,South,171,3.5,3.5,-999,0.00,,,-99.99,perl,2013-04-26 21:17:00,
2013-04-26 17:22:00,52.5,-99.9,30.44,NE,52,4.2,5.4,-999,0.00,,,-99.99,perl,2013-04-26 21:22:00,
2013-04-26 17:27:00,52.5,-99.9,30.44,South,179,0.8,0.0,-999,0.00,,,-99.99,perl,2013-04-26 21:27:00,
2013-04-26 17:32:00,52.9,-99.9,30.44,NNE,16,2.9,4.0,-999,0.00,,,-99.99,perl,2013-04-26 21:32:00,
2013-04-26 17:37:00,52.5,-99.9,30.44,East,95,2.7,3.6,-999,0.00,,,-99.99,perl,2013-04-26 21:37:00,
2013-04-26 17:42:00,52.7,-99.9,30.44,NE,34,0.7,4.9,-999,0.00,,,-99.99,perl,2013-04-26 21:42:00,
2013-04-26 17:47:00,52.5,-99.9,30.44,NNE,29,2.7,4.0,-999,0.00,,,-99.99,perl,2013-04-26 21:47:00,
2013-04-26 17:52:00,52.5,-99.9,30.44,ESE,109,2.9,4.0,-999,0.00,,,-99.99,perl,2013-04-26 21:52:00,
2013-04-26 17:58:00,52.5,-99.9,30.44,North,357,2.2,2.7,-999,0.00,,,-99.99,perl,2013-04-26 21:58:00,
2013-04-26 18:03:00,52.7,-99.9,30.41,West,278,3.0,3.1,-999,0.00,,,-99.99,perl,2013-04-26 22:03:00,
2013-04-26 18:08:00,52.5,-99.9,30.41,ENE,58,0.0,0.0,-999,0.00,,,-99.99,perl,2013-04-26 22:08:00,
2013-04-26 18:14:00,52.7,-99.9,30.41,SW,214,0.0,0.0,-999,0.00,,,-99.99,perl,2013-04-26 22:14:00,
2013-04-26 18:19:00,52.7,-99.9,30.41,North,357,0.0,0.0,-999,0.00,,,-99.99,perl,2013-04-26 22:19:00,
2013-04-26 18:24:00,52.3,-99.9,30.41,NNE,17,0.0,2.2,-999,0.00,,,-99.99,perl,2013-04-26 22:24:00,
2013-04-26 18:29:00,52.2,-99.9,30.41,North,8,0.0,0.0,-999,0.00,,,-99.99,perl,2013-04-26 22:29:00,
2013-04-26 18:35:00,52.0,-99.9,30.41,North,9,0.0,0.0,-999,0.00,,,-99.99,perl,2013-04-26 22:35:00,
2013-04-26 18:40:00,52.0,-99.9,30.41,North,353,0.0,0.0,-999,0.00,,,-99.99,perl,2013-04-26 22:40:00,
2013-04-26 18:45:00,51.8,-99.9,30.41,North,11,0.0,0.0,-999,0.00,,,-99.99,perl,2013-04-26 22:45:00,
2013-04-26 18:50:00,51.8,-99.9,30.41,NNE,23,0.0,0.0,-999,0.00,,,-99.99,perl,2013-04-26 22:50:00,
2013-04-26 18:55:00,51.6,-99.9,30.41,ESE,104,0.0,3.6,-999,0.00,,,-99.99,perl,2013-04-26 22:55:00,
2013-04-26 19:00:00,51.4,-99.9,30.41,NNE,19,0.0,0.0,-999,0.00,,,-99.99,perl,2013-04-26 23:00:00,
2013-04-26 19:05:00,51.3,-99.9,30.41,NNE,32,0.0,0.0,-999,0.00,,,-99.99,perl,2013-04-26 23:05:00,
2013-04-26 19:10:00,51.1,-99.9,30.41,NE,51,0.0,0.0,-999,0.00,,,-99.99,perl,2013-04-26 23:10:00,
2013-04-26 19:16:00,50.5,-99.9,30.41,East,84,0.0,0.0,-999,0.00,,,-99.99,perl,2013-04-26 23:16:00,
2013-04-26 19:21:00,50.5,-99.9,30.41,ENE,74,0.0,0.0,-999,0.00,,,-99.99,perl,2013-04-26 23:21:00,
2013-04-26 19:26:00,50.2,-99.9,30.41,ENE,78,0.0,3.6,-999,0.00,,,-99.99,perl,2013-04-26 23:26:00,
2013-04-26 19:31:00,50.0,-99.9,30.41,NE,51,0.4,2.7,-999,0.00,,,-99.99,perl,2013-04-26 23:31:00,
2013-04-26 19:36:00,49.8,-99.9,30.41,NE,56,0.0,0.0,-999,0.00,,,-99.99,perl,2013-04-26 23:36:00,
2013-04-26 19:41:00,49.6,-99.9,30.41,ENE,58,0.0,0.0,-999,0.00,,,-99.99,perl,2013-04-26 23:41:00,
2013-04-26 19:46:00,49.5,-99.9,30.41,ENE,61,0.0,0.0,-999,0.00,,,-99.99,perl,2013-04-26 23:46:00,
2013-04-26 19:51:00,49.1,-99.9,30.41,ENE,65,0.0,0.0,-999,0.00,,,-99.99,perl,2013-04-26 23:51:00,
2013-04-26 20:06:00,48.6,-99.9,30.44,ENE,67,0.0,0.0,-999,0.00,,,-99.99,perl,2013-04-27 00:06:00,
2013-04-26 20:11:00,48.4,-99.9,30.44,ENE,66,0.0,0.0,-999,0.00,,,-99.99,perl,2013-04-27 00:11:00,
2013-04-26 20:16:00,48.0,-99.9,30.44,ENE,67,0.0,0.0,-999,0.00,,,-99.99,perl,2013-04-27 00:16:00,
2013-04-26 20:21:00,47.8,-99.9,30.44,ENE,66,0.0,0.0,-999,0.00,,,-99.99,perl,2013-04-27 00:21:00,
2013-04-26 20:26:00,47.7,-99.9,30.44,ENE,66,0.0,0.0,-999,0.00,,,-99.99,perl,2013-04-27 00:26:00,
2013-04-26 20:31:00,47.5,-99.9,30.44,ENE,66,0.0,0.0,-999,0.00,,,-99.99,perl,2013-04-27 00:31:00,
2013-04-26 20:36:00,47.5,-99.9,30.44,ENE,64,0.0,0.0,-999,0.00,,,-99.99,perl,2013-04-27 00:36:00,
2013-04-26 20:41:00,47.3,-99.9,30.44,ENE,63,0.0,0.0,-999,0.00,,,-99.99,perl,2013-04-27 00:41:00,
2013-04-26 20:46:00,47.3,-99.9,30.44,ENE,64,0.0,0.0,-999,0.00,,,-99.99,perl,2013-04-27 00:46:00,
2013-04-26 20:51:00,46.9,-99.9,30.44,ENE,64,0.0,0.0,-999,0.00,,,-99.99,perl,2013-04-27 00:51:00,
2013-04-26 20:56:00,46.6,-99.9,30.44,ENE,63,0.0,0.0,-999,0.00,,,-99.99,perl,2013-04-27 00:56:00,
2013-04-26 21:01:00,46.2,-99.9,30.44,ENE,65,0.0,0.0,-999,0.00,,,-99.99,perl,2013-04-27 01:01:00,
2013-04-26 21:06:00,45.9,-99.9,30.44,ENE,64,0.0,0.0,-999,0.00,,,-99.99,perl,2013-04-27 01:06:00,
2013-04-26 21:11:00,45.7,-99.9,30.44,ENE,65,0.0,0.0,-999,0.00,,,-99.99,perl,2013-04-27 01:11:00,
2013-04-26 21:16:00,45.5,-99.9,30.44,ENE,64,0.0,0.0,-999,0.00,,,-99.99,perl,2013-04-27 01:16:00,
2013-04-26 21:21:00,45.1,-99.9,30.44,ENE,70,0.0,0.0,-999,0.00,,,-99.99,perl,2013-04-27 01:21:00,
2013-04-26 21:26:00,44.8,-99.9,30.44,ESE,119,0.0,0.0,-999,0.00,,,-99.99,perl,2013-04-27 01:26:00,
2013-04-26 21:31:00,44.4,-99.9,30.44,ESE,120,0.0,0.0,-999,0.00,,,-99.99,perl,2013-04-27 01:31:00,
2013-04-26 21:36:00,44.2,-99.9,30.44,ESE,119,0.0,0.0,-999,0.00,,,-99.99,perl,2013-04-27 01:36:00,
2013-04-26 21:41:00,44.2,-99.9,30.44,ESE,118,0.0,0.0,-999,0.00,,,-99.99,perl,2013-04-27 01:41:00,
2013-04-26 21:46:00,44.2,-99.9,30.44,ESE,119,0.0,0.0,-999,0.00,,,-99.99,perl,2013-04-27 01:46:00,
2013-04-26 21:51:00,44.2,-99.9,30.44,ESE,119,0.0,0.0,-999,0.00,,,-99.99,perl,2013-04-27 01:51:00,
2013-04-26 21:56:00,44.1,-99.9,30.44,ESE,119,0.0,0.0,-999,0.00,,,-99.99,perl,2013-04-27 01:56:00,
2013-04-26 22:01:00,43.9,-99.9,30.44,ESE,119,0.0,0.0,-999,0.00,,,-99.99,perl,2013-04-27 02:01:00,
2013-04-26 22:06:00,43.7,-99.9,30.44,ESE,119,0.0,0.0,-999,0.00,,,-99.99,perl,2013-04-27 02:06:00,
2013-04-26 22:11:00,43.7,-99.9,30.44,ESE,119,0.0,0.0,-999,0.00,,,-99.99,perl,2013-04-27 02:11:00,
2013-04-26 22:17:00,43.5,-99.9,30.44,ESE,119,0.0,0.0,-999,0.00,,,-99.99,perl,2013-04-27 02:17:00,
2013-04-26 22:22:00,43.3,-99.9,30.44,ESE,119,0.0,0.0,-999,0.00,,,-99.99,perl,2013-04-27 02:22:00,
2013-04-26 22:27:00,43.3,-99.9,30.44,ESE,119,0.0,0.0,-999,0.00,,,-99.99,perl,2013-04-27 02:27:00,
2013-04-26 22:32:00,43.2,-99.9,30.44,ESE,119,0.0,0.0,-999,0.00,,,-99.99,perl,2013-04-27 02:32:00,
2013-04-26 22:37:00,43.0,-99.9,30.44,ESE,118,0.0,0.0,-999,0.00,,,-99.99,perl,2013-04-27 02:37:00,
2013-04-26 22:42:00,42.8,-99.9,30.44,ESE,119,0.0,0.0,-999,0.00,,,-99.99,perl,2013-04-27 02:42:00,
2013-04-26 22:47:00,42.4,-99.9,30.44,ESE,118,0.0,0.0,-999,0.00,,,-99.99,perl,2013-04-27 02:47:00,
2013-04-26 22:52:00,42.1,-99.9,30.44,ESE,119,0.0,0.0,-999,0.00,,,-99.99,perl,2013-04-27 02:52:00,
2013-04-26 22:57:00,42.1,-99.9,30.44,ESE,119,0.0,0.0,-999,0.00,,,-99.99,perl,2013-04-27 02:57:00,
2013-04-26 23:02:00,41.7,-99.9,30.44,ESE,119,0.0,0.0,-999,0.00,,,-99.99,perl,2013-04-27 03:02:00,
2013-04-26 23:07:00,41.7,-99.9,30.44,ESE,119,0.0,0.0,-999,0.00,,,-99.99,perl,2013-04-27 03:07:00,
2013-04-26 23:12:00,41.7,-99.9,30.44,ESE,119,0.0,0.0,-999,0.00,,,-99.99,perl,2013-04-27 03:12:00,
2013-04-26 23:17:00,41.5,-99.9,30.44,ESE,120,0.0,0.0,-999,0.00,,,-99.99,perl,2013-04-27 03:17:00,
2013-04-26 23:22:00,41.5,-99.9,30.44,ESE,119,0.0,0.0,-999,0.00,,,-99.99,perl,2013-04-27 03:22:00,
2013-04-26 23:27:00,41.5,-99.9,30.44,ESE,119,0.0,0.0,-999,0.00,,,-99.99,perl,2013-04-27 03:27:00,
2013-04-26 23:32:00,41.5,-99.9,30.44,ESE,119,0.0,0.0,-999,0.00,,,-99.99,perl,2013-04-27 03:32:00,
2013-04-26 23:37:00,41.5,-99.9,30.44,ESE,119,0.0,0.0,-999,0.00,,,-99.99,perl,2013-04-27 03:37:00,
2013-04-26 23:42:00,41.5,-99.9,30.44,ESE,119,0.0,0.0,-999,0.00,,,-99.99,perl,2013-04-27 03:42:00,
2013-04-26 23:47:00,41.4,-99.9,30.41,ESE,119,0.0,0.0,-999,0.00,,,-99.99,perl,2013-04-27 03:47:00,
2013-04-26 23:52:00,41.2,-99.9,30.41,ESE,118,0.0,0.0,-999,0.00,,,-99.99,perl,2013-04-27 03:52:00,
2013-04-26 23:57:00,41.0,-99.9,30.41,ESE,119,0.0,0.0,-999,0.00,,,-99.99,perl,2013-04-27 03:57:00,